createdAt,value
2024-01-17T00:01:08.276Z,-1.70
2024-01-17T00:03:35.725Z,-2.48
2024-01-17T00:06:04.781Z,-2.71
2024-01-17T00:08:34.652Z,-2.30
2024-01-17T00:11:03.645Z,-2.34
2024-01-17T00:13:31.629Z,-2.63
2024-01-17T00:16:00.164Z,-2.57
2024-01-17T00:18:28.234Z,-2.85
2024-01-17T00:20:57.405Z,-3.01
2024-01-17T00:23:27.228Z,-2.76
2024-01-17T00:25:55.927Z,-3.13
2024-01-17T00:28:23.882Z,-2.56
2024-01-17T00:30:52.437Z,-3.57
2024-01-17T00:33:20.508Z,-2.55
2024-01-17T00:35:49.097Z,-3.18
2024-01-17T00:38:16.934Z,-2.62
2024-01-17T00:40:45.431Z,-3.07
2024-01-17T00:43:12.774Z,-3.20
2024-01-17T00:45:40.754Z,-2.67
2024-01-17T00:48:10.669Z,-2.70
2024-01-17T00:50:39.862Z,-3.19
2024-01-17T00:53:07.493Z,-3.55
2024-01-17T00:55:34.909Z,-2.93
2024-01-17T00:58:02.869Z,-3.47
2024-01-17T01:00:31.487Z,-3.35
2024-01-17T01:03:01.328Z,-3.37
2024-01-17T01:05:30.450Z,-3.04
2024-01-17T01:07:59.137Z,-3.36
2024-01-17T01:10:27.875Z,-3.31
2024-01-17T01:12:57.056Z,-3.34
2024-01-17T01:15:26.156Z,-4.05
2024-01-17T01:17:54.114Z,-3.09
2024-01-17T01:20:22.702Z,-2.69
2024-01-17T01:22:51.389Z,-2.11
2024-01-17T01:25:20.384Z,-2.43
2024-01-17T01:27:49.467Z,-2.79
2024-01-17T01:30:18.514Z,-3.28
2024-01-17T01:32:48.365Z,-2.88
2024-01-17T01:35:16.315Z,-3.03
2024-01-17T01:37:46.028Z,-2.50
2024-01-17T01:40:14.952Z,-3.06
2024-01-17T01:42:46.492Z,-3.02
2024-01-17T01:45:15.757Z,-3.67
2024-01-17T01:47:43.183Z,-4.22
2024-01-17T01:50:11.748Z,-4.06
2024-01-17T01:52:41.410Z,-3.69
2024-01-17T01:55:10.382Z,-3.15
2024-01-17T01:57:40.869Z,-2.99
2024-01-17T02:00:08.782Z,-2.70
2024-01-17T02:02:36.764Z,-2.48
2024-01-17T02:05:08.239Z,-2.20
2024-01-17T02:07:36.860Z,-2.38
2024-01-17T02:10:05.628Z,-2.49
2024-01-17T02:12:35.030Z,-2.36
2024-01-17T02:15:03.638Z,-2.44
2024-01-17T02:17:31.747Z,-1.90
2024-01-17T02:20:01.296Z,-2.11
2024-01-17T02:22:29.212Z,-2.28
2024-01-17T02:24:57.681Z,-2.21
2024-01-17T02:27:27.407Z,-2.11
2024-01-17T02:29:55.404Z,-1.68
2024-01-17T02:32:24.868Z,-1.63
2024-01-17T02:34:54.872Z,-1.52
2024-01-17T02:37:24.609Z,-1.70
2024-01-17T02:39:52.554Z,-1.55
2024-01-17T02:42:21.037Z,-1.81
2024-01-17T02:44:48.654Z,-1.79
2024-01-17T02:47:17.188Z,-1.89
2024-01-17T02:49:45.948Z,-1.67
2024-01-17T02:52:13.851Z,-1.52
2024-01-17T02:54:43.658Z,-1.87
2024-01-17T02:57:11.659Z,-1.84
2024-01-17T02:59:39.672Z,-1.82
2024-01-17T03:02:07.049Z,-1.83
2024-01-17T03:04:35.039Z,-1.30
2024-01-17T03:07:03.788Z,-1.90
2024-01-17T03:09:32.590Z,-1.98
2024-01-17T03:12:00.602Z,-2.04
2024-01-17T03:14:28.552Z,-2.55
2024-01-17T03:16:56.531Z,-3.15
2024-01-17T03:19:25.735Z,-2.45
2024-01-17T03:21:54.907Z,-2.23
2024-01-17T03:24:22.351Z,-2.50
2024-01-17T03:26:52.201Z,-2.26
2024-01-17T03:29:20.173Z,-2.72
2024-01-17T03:31:48.730Z,-2.99
2024-01-17T03:34:18.524Z,-2.52
2024-01-17T03:36:45.905Z,-2.79
2024-01-17T03:39:13.950Z,-2.19
2024-01-17T03:41:42.992Z,-1.93
2024-01-17T03:44:10.970Z,-2.47
2024-01-17T03:46:38.524Z,-2.49
2024-01-17T03:49:06.552Z,-2.19
2024-01-17T03:51:35.332Z,-2.55
2024-01-17T03:54:04.134Z,-2.41
2024-01-17T03:56:32.163Z,-2.55
2024-01-17T03:59:00.142Z,-2.25
2024-01-17T04:01:29.216Z,-2.36
2024-01-17T04:03:57.112Z,-2.38
2024-01-17T04:06:24.676Z,-2.39
2024-01-17T04:08:52.648Z,-2.50
2024-01-17T04:11:21.709Z,-2.51
2024-01-17T04:13:50.219Z,-2.28
2024-01-17T04:16:18.202Z,-2.38
2024-01-17T04:18:47.216Z,-3.11
2024-01-17T04:21:20.078Z,-2.87
2024-01-17T04:23:50.649Z,-2.52
2024-01-17T04:26:27.535Z,-2.77
2024-01-17T04:28:55.678Z,-2.50
2024-01-17T04:31:26.161Z,-2.38
2024-01-17T04:33:55.702Z,-2.32
2024-01-17T04:36:24.720Z,-2.23
2024-01-17T04:38:52.649Z,-2.33
2024-01-17T04:41:20.070Z,-2.24
2024-01-17T04:43:47.964Z,-2.19
2024-01-17T04:46:19.566Z,-2.25
2024-01-17T04:48:47.493Z,-2.20
2024-01-17T04:51:17.202Z,-2.23
2024-01-17T04:53:45.961Z,-1.75
2024-01-17T04:56:14.916Z,-1.90
2024-01-17T04:58:42.488Z,-2.04
2024-01-17T05:01:13.512Z,-1.97
2024-01-17T05:03:44.419Z,-1.67
2024-01-17T05:06:13.591Z,-3.06
2024-01-17T05:08:42.122Z,-3.73
2024-01-17T05:11:10.820Z,-2.68
2024-01-17T05:13:39.819Z,-2.45
2024-01-17T05:16:09.617Z,-2.45
2024-01-17T05:18:38.899Z,-2.17
2024-01-17T05:21:08.089Z,-2.30
2024-01-17T05:23:36.147Z,-3.02
2024-01-17T05:26:04.724Z,-3.14
2024-01-17T05:28:33.784Z,-3.36
2024-01-17T05:31:02.581Z,-2.91
2024-01-17T05:33:30.704Z,-2.76
2024-01-17T05:36:01.053Z,-2.27
2024-01-17T05:38:28.869Z,-2.91
2024-01-17T05:40:56.268Z,-2.53
2024-01-17T05:43:24.256Z,-2.85
2024-01-17T05:45:52.275Z,-2.89
2024-01-17T05:48:20.507Z,-3.07
2024-01-17T05:50:48.661Z,-2.89
2024-01-17T05:53:16.661Z,-2.98
2024-01-17T05:55:45.305Z,-3.46
2024-01-17T05:58:13.193Z,-3.77
2024-01-17T06:00:43.842Z,-2.92
2024-01-17T06:03:11.794Z,-2.73
2024-01-17T06:05:39.837Z,-3.26
2024-01-17T06:08:09.581Z,-2.83
2024-01-17T06:10:40.453Z,-2.74
2024-01-17T06:13:09.722Z,-2.27
2024-01-17T06:15:39.497Z,-2.53
2024-01-17T06:18:07.527Z,-2.53
2024-01-17T06:20:36.049Z,-2.11
2024-01-17T06:23:05.163Z,-2.02
2024-01-17T06:25:33.122Z,-1.64
2024-01-17T06:28:02.833Z,-1.43
2024-01-17T06:30:30.336Z,-1.59
2024-01-17T06:32:57.917Z,-0.85
2024-01-17T06:35:25.341Z,-0.81
2024-01-17T06:37:52.918Z,-0.98
2024-01-17T06:40:20.927Z,-1.07
2024-01-17T06:42:48.932Z,-0.84
2024-01-17T06:45:18.789Z,-1.15
2024-01-17T06:47:47.881Z,-0.70
2024-01-17T06:50:15.841Z,-0.49
2024-01-17T06:52:44.927Z,-0.49
2024-01-17T06:55:16.472Z,-0.39
2024-01-17T06:57:45.869Z,-0.65
2024-01-17T07:00:16.563Z,-0.33
2024-01-17T07:02:45.141Z,0.10
2024-01-17T07:05:12.538Z,-0.25
2024-01-17T07:07:40.668Z,-0.27
2024-01-17T07:10:09.982Z,0.58
2024-01-17T07:12:37.373Z,-0.09
2024-01-17T07:15:06.116Z,0.34
2024-01-17T07:17:33.556Z,1.10
2024-01-17T07:20:01.042Z,0.97
2024-01-17T07:22:58.341Z,1.02
2024-01-17T07:37:27.068Z,-0.24
2024-01-17T07:39:56.996Z,0.78
2024-01-17T07:42:27.989Z,0.92
2024-01-17T07:44:57.627Z,0.82
2024-01-17T07:47:25.649Z,0.68
2024-01-17T07:49:54.198Z,0.50
2024-01-17T07:52:23.959Z,-0.08
2024-01-17T07:54:52.745Z,-0.02
2024-01-17T07:57:21.953Z,0.28
2024-01-17T07:59:51.057Z,0.46
2024-01-17T08:02:20.133Z,0.55
2024-01-17T08:04:47.652Z,1.45
2024-01-17T08:07:17.248Z,0.12
2024-01-17T08:09:46.339Z,0.47
2024-01-17T08:12:23.411Z,0.88
2024-01-17T08:15:13.673Z,0.47
2024-01-17T08:17:53.683Z,-0.22
2024-01-17T08:21:14.279Z,-0.38
2024-01-17T08:23:49.250Z,-0.52
2024-01-17T08:26:38.541Z,-0.22
2024-01-17T08:29:18.406Z,-0.37
2024-01-17T08:31:47.456Z,-0.46
2024-01-17T08:34:22.645Z,-0.83
2024-01-17T08:37:25.436Z,-1.16
2024-01-17T08:40:56.207Z,-1.35
2024-01-17T08:43:45.465Z,-0.91
2024-01-17T08:46:17.477Z,-1.22
2024-01-17T08:48:46.108Z,-0.85
2024-01-17T08:51:14.715Z,-0.81
2024-01-17T08:53:42.976Z,0.03
2024-01-17T08:56:24.211Z,-0.36
2024-01-17T08:58:52.156Z,-0.36
2024-01-17T09:01:20.928Z,-0.43
2024-01-17T09:03:49.431Z,-0.43
2024-01-17T09:06:19.290Z,0.57
2024-01-17T09:08:48.409Z,0.97
2024-01-17T09:11:16.944Z,0.99
2024-01-17T09:13:44.961Z,1.38
2024-01-17T09:16:14.687Z,1.86
2024-01-17T09:18:43.474Z,1.49
2024-01-17T09:47:11.037Z,1.05
2024-01-17T09:49:38.448Z,0.68
2024-01-17T09:52:07.090Z,0.69
2024-01-17T09:54:43.627Z,0.65
2024-01-17T09:57:16.964Z,0.86
2024-01-17T09:59:51.378Z,0.45
2024-01-17T10:23:20.077Z,1.04
2024-01-17T10:25:49.170Z,1.57
2024-01-17T10:28:18.946Z,1.59
2024-01-17T10:30:46.366Z,1.62
2024-01-17T10:39:28.359Z,1.93
2024-01-17T10:41:56.691Z,1.90
2024-01-17T10:44:24.878Z,1.81
2024-01-17T10:46:55.049Z,1.30
2024-01-17T10:49:25.118Z,1.28
2024-01-17T10:52:14.842Z,1.80
2024-01-17T10:54:49.206Z,1.63
2024-01-17T10:57:17.388Z,2.37
2024-01-17T10:59:50.749Z,2.32
2024-01-17T11:02:22.750Z,2.35
2024-01-17T11:04:58.323Z,2.91
2024-01-17T11:07:25.980Z,2.73
2024-01-17T11:09:55.462Z,2.43
2024-01-17T11:12:24.855Z,3.06
2024-01-17T11:14:55.202Z,3.47
2024-01-17T11:17:29.487Z,3.88
2024-01-17T11:20:08.893Z,3.60
2024-01-17T11:22:42.466Z,3.24
2024-01-17T11:25:40.243Z,3.58
2024-01-17T11:28:28.787Z,3.65
2024-01-17T11:31:02.904Z,3.61
2024-01-17T11:43:07.167Z,2.62
2024-01-17T11:52:37.535Z,2.11
2024-01-17T11:58:23.890Z,2.26
2024-01-17T12:10:35.331Z,2.50
2024-01-17T12:13:03.272Z,2.37
2024-01-17T12:15:30.761Z,2.54
2024-01-17T12:17:58.805Z,2.91
2024-01-17T12:20:26.289Z,3.10
2024-01-17T12:37:27.001Z,3.47
2024-01-17T12:52:02.216Z,3.28
2024-01-17T12:54:38.436Z,3.47
2024-01-17T12:57:06.473Z,3.13
2024-01-17T12:59:35.789Z,3.49
2024-01-17T13:02:04.954Z,3.43
2024-01-17T13:04:32.907Z,3.85
2024-01-17T13:07:02.482Z,3.51
2024-01-17T13:09:33.598Z,3.51
2024-01-17T13:12:02.054Z,3.73
2024-01-17T13:14:31.614Z,3.49
2024-01-17T13:17:01.414Z,3.63
2024-01-17T13:19:31.841Z,3.42
2024-01-17T13:22:00.051Z,3.31
2024-01-17T13:24:28.039Z,3.46
2024-01-17T13:26:56.784Z,3.59
2024-01-17T13:29:25.430Z,3.90
2024-01-17T13:31:55.423Z,4.13
2024-01-17T13:34:24.045Z,3.52
2024-01-17T13:36:52.200Z,3.62
2024-01-17T13:39:19.731Z,3.90
2024-01-17T13:41:47.853Z,3.40
2024-01-17T13:44:16.556Z,3.65
2024-01-17T13:46:43.977Z,3.54
2024-01-17T13:49:13.361Z,3.56
2024-01-17T13:51:49.320Z,3.60
2024-01-17T14:10:04.576Z,4.05
2024-01-17T14:16:39.754Z,4.16
2024-01-17T14:26:40.538Z,3.96
2024-01-17T14:29:14.824Z,3.60
2024-01-17T14:31:43.485Z,3.06
2024-01-17T14:34:19.126Z,3.32
2024-01-17T14:36:54.927Z,3.73
2024-01-17T14:39:25.676Z,3.73
2024-01-17T14:42:11.645Z,3.93
2024-01-17T14:47:29.854Z,3.64
2024-01-17T14:50:04.539Z,4.13
2024-01-17T14:53:24.252Z,4.08
2024-01-17T14:55:52.979Z,3.91
2024-01-17T14:58:22.167Z,3.38
2024-01-17T15:00:49.824Z,3.34
2024-01-17T15:03:18.346Z,4.28
2024-01-17T15:05:46.090Z,4.32
2024-01-17T15:08:14.853Z,4.73
2024-01-17T15:10:42.792Z,4.48
2024-01-17T15:15:48.264Z,4.31
2024-01-17T15:18:15.840Z,4.60
2024-01-17T15:20:43.985Z,4.54
2024-01-17T15:23:11.424Z,4.21
2024-01-17T15:25:41.661Z,4.68
2024-01-17T15:28:09.605Z,4.53
2024-01-17T15:30:38.667Z,4.56
2024-01-17T15:33:06.323Z,4.64
2024-01-17T15:35:33.831Z,4.94
2024-01-17T15:42:05.819Z,4.72
2024-01-17T15:44:49.073Z,4.34
2024-01-17T15:59:14.619Z,4.09
2024-01-17T16:38:47.302Z,5.21
2024-01-17T16:45:20.075Z,5.22
2024-01-17T17:35:24.492Z,4.46
2024-01-17T17:41:48.106Z,4.22
2024-01-17T17:45:27.231Z,4.65
2024-01-17T17:55:30.227Z,4.96
2024-01-17T18:02:34.062Z,4.79
2024-01-17T18:06:01.719Z,4.90
2024-01-17T18:09:25.008Z,5.04
2024-01-17T18:12:32.201Z,4.94
2024-01-17T18:15:07.581Z,5.13
2024-01-17T18:17:50.906Z,5.37
2024-01-17T18:20:25.137Z,5.38
2024-01-17T18:23:40.106Z,5.66
2024-01-17T18:26:13.171Z,5.72
2024-01-17T18:28:41.941Z,5.19
2024-01-17T18:31:16.536Z,5.07
2024-01-17T18:34:03.437Z,5.55
